Aberdeen, Idaho
Current Conditions -  °F | °C
As of 8:53 AM on Friday 21 Nov 2014 (Local Time) from KPIH Reporting Station
Clear Clear  
Wind Chill: 24°   Ceiling: Unl
Heat Index: 24°   Visibility: 7mi
Dew Point: 22°   Wind: 0mph
Humidity: 91%   Direction: NA
Pressure: 30.04"   Gusts: NA
Location:  42.94°N, 112.84°W
Report Text: KPIH 211553Z 00000KT 7SM CLR M04/M06 A3004 RMK AO2 SLP206 VIS SE 2 T10441056
Loading
Personal Weather Stations






























Interactive Weather Map New forecast layout! Learn more

10-Day Weather Forecast

Advertisements
Track Severe Weather on mobile